Milo, Missouri
Current Conditions -  °F | °C
As of 12:35 AM on Wednesday 28 Jan 2015 (Local Time) from KPTS Reporting Station
Clear Clear  
Wind Chill:   Ceiling: Unl
Heat Index:   Visibility: 10mi
Dew Point:   Wind: 8mph
Humidity: 54%   Direction: 150°SSE
Pressure: 30.04"   Gusts: NA
Location:  37.76°N, 94.31°W
Report Text: KPTS 280635Z AUTO 15007KT 10SM CLR 09/00 A3004 RMK AO2 T00910001
Loading
Personal Weather Stations






























Interactive Weather Map New forecast layout! Learn more

10-Day Weather Forecast

Advertisements
Track Severe Weather on mobile